sensor_id;sensor_type;location;lat;lon;timestamp;P1;durP1;ratioP1;P2;durP2;ratioP2
11533;SDS011;5823;50.588;8.462;2022-12-07T00:00:11;0.80;;;0.80;;
11533;SDS011;5823;50.588;8.462;2022-12-07T00:02:37;1.42;;;1.20;;
11533;SDS011;5823;50.588;8.462;2022-12-07T00:05:04;1.38;;;1.10;;
11533;SDS011;5823;50.588;8.462;2022-12-07T00:07:30;1.27;;;1.17;;
11533;SDS011;5823;50.588;8.462;2022-12-07T00:09:58;0.70;;;0.70;;
11533;SDS011;5823;50.588;8.462;2022-12-07T00:12:24;1.20;;;1.10;;
11533;SDS011;5823;50.588;8.462;2022-12-07T00:14:50;0.70;;;0.70;;
11533;SDS011;5823;50.588;8.462;2022-12-07T00:17:16;0.80;;;0.80;;
11533;SDS011;5823;50.588;8.462;2022-12-07T00:19:43;0.50;;;0.50;;
11533;SDS011;5823;50.588;8.462;2022-12-07T00:22:09;0.57;;;0.57;;
11533;SDS011;5823;50.588;8.462;2022-12-07T00:24:35;0.75;;;0.70;;
11533;SDS011;5823;50.588;8.462;2022-12-07T00:27:03;1.10;;;1.00;;
11533;SDS011;5823;50.588;8.462;2022-12-07T00:29:29;1.42;;;1.25;;
11533;SDS011;5823;50.588;8.462;2022-12-07T00:31:55;1.10;;;0.90;;
11533;SDS011;5823;50.588;8.462;2022-12-07T00:34:21;0.70;;;0.70;;
11533;SDS011;5823;50.588;8.462;2022-12-07T00:36:48;0.80;;;0.77;;
11533;SDS011;5823;50.588;8.462;2022-12-07T00:39:14;0.75;;;0.75;;
11533;SDS011;5823;50.588;8.462;2022-12-07T00:41:40;1.00;;;0.90;;
11533;SDS011;5823;50.588;8.462;2022-12-07T00:44:08;0.52;;;0.52;;
11533;SDS011;5823;50.588;8.462;2022-12-07T00:46:34;0.50;;;0.50;;
11533;SDS011;5823;50.588;8.462;2022-12-07T00:49:00;0.65;;;0.65;;
11533;SDS011;5823;50.588;8.462;2022-12-07T00:51:27;0.80;;;0.70;;
11533;SDS011;5823;50.588;8.462;2022-12-07T00:53:53;0.77;;;0.63;;
11533;SDS011;5823;50.588;8.462;2022-12-07T00:56:21;0.90;;;0.90;;
11533;SDS011;5823;50.588;8.462;2022-12-07T00:58:51;0.68;;;0.52;;
11533;SDS011;5823;50.588;8.462;2022-12-07T01:01:18;0.47;;;0.47;;
11533;SDS011;5823;50.588;8.462;2022-12-07T01:03:45;0.60;;;0.50;;
11533;SDS011;5823;50.588;8.462;2022-12-07T01:06:13;0.43;;;0.40;;
11533;SDS011;5823;50.588;8.462;2022-12-07T01:08:40;0.50;;;0.50;;
11533;SDS011;5823;50.588;8.462;2022-12-07T01:11:07;0.50;;;0.50;;
11533;SDS011;5823;50.588;8.462;2022-12-07T01:13:34;0.40;;;0.40;;
11533;SDS011;5823;50.588;8.462;2022-12-07T01:16:01;0.40;;;0.40;;
11533;SDS011;5823;50.588;8.462;2022-12-07T01:18:29;0.80;;;0.80;;
11533;SDS011;5823;50.588;8.462;2022-12-07T01:21:00;0.43;;;0.43;;
11533;SDS011;5823;50.588;8.462;2022-12-07T01:23:26;0.57;;;0.57;;
11533;SDS011;5823;50.588;8.462;2022-12-07T01:25:55;0.50;;;0.50;;
11533;SDS011;5823;50.588;8.462;2022-12-07T01:28:22;0.60;;;0.60;;
11533;SDS011;5823;50.588;8.462;2022-12-07T01:30:54;0.80;;;0.75;;
11533;SDS011;5823;50.588;8.462;2022-12-07T01:33:20;0.65;;;0.63;;
11533;SDS011;5823;50.588;8.462;2022-12-07T01:35:48;0.65;;;0.65;;
11533;SDS011;5823;50.588;8.462;2022-12-07T01:38:14;0.52;;;0.52;;
11533;SDS011;5823;50.588;8.462;2022-12-07T01:40:40;0.75;;;0.75;;
11533;SDS011;5823;50.588;8.462;2022-12-07T01:43:09;0.63;;;0.60;;
11533;SDS011;5823;50.588;8.462;2022-12-07T01:45:39;0.60;;;0.60;;
11533;SDS011;5823;50.588;8.462;2022-12-07T01:48:05;0.75;;;0.75;;
11533;SDS011;5823;50.588;8.462;2022-12-07T01:50:33;0.57;;;0.57;;
11533;SDS011;5823;50.588;8.462;2022-12-07T01:53:01;1.15;;;1.00;;
11533;SDS011;5823;50.588;8.462;2022-12-07T01:55:29;0.35;;;0.35;;
11533;SDS011;5823;50.588;8.462;2022-12-07T01:57:55;0.40;;;0.40;;
11533;SDS011;5823;50.588;8.462;2022-12-07T02:00:22;0.50;;;0.50;;
11533;SDS011;5823;50.588;8.462;2022-12-07T02:02:51;1.00;;;0.90;;
11533;SDS011;5823;50.588;8.462;2022-12-07T02:05:18;0.70;;;0.70;;
11533;SDS011;5823;50.588;8.462;2022-12-07T02:07:44;0.70;;;0.65;;
11533;SDS011;5823;50.588;8.462;2022-12-07T02:10:14;0.88;;;0.65;;
11533;SDS011;5823;50.588;8.462;2022-12-07T02:12:41;0.55;;;0.55;;
11533;SDS011;5823;50.588;8.462;2022-12-07T02:15:08;0.50;;;0.50;;
11533;SDS011;5823;50.588;8.462;2022-12-07T02:17:36;0.70;;;0.70;;
11533;SDS011;5823;50.588;8.462;2022-12-07T02:20:09;0.40;;;0.40;;
11533;SDS011;5823;50.588;8.462;2022-12-07T02:22:52;0.25;;;0.25;;
11533;SDS011;5823;50.588;8.462;2022-12-07T02:25:23;1.33;;;1.10;;
11533;SDS011;5823;50.588;8.462;2022-12-07T02:27:58;0.80;;;0.75;;
11533;SDS011;5823;50.588;8.462;2022-12-07T02:30:31;0.70;;;0.70;;
11533;SDS011;5823;50.588;8.462;2022-12-07T02:32:59;0.30;;;0.30;;
11533;SDS011;5823;50.588;8.462;2022-12-07T02:35:28;0.47;;;0.45;;
11533;SDS011;5823;50.588;8.462;2022-12-07T02:37:58;0.50;;;0.50;;
11533;SDS011;5823;50.588;8.462;2022-12-07T02:40:29;0.80;;;0.80;;
11533;SDS011;5823;50.588;8.462;2022-12-07T02:42:59;0.73;;;0.70;;
11533;SDS011;5823;50.588;8.462;2022-12-07T02:45:26;0.73;;;0.70;;
11533;SDS011;5823;50.588;8.462;2022-12-07T02:47:56;0.70;;;0.70;;
11533;SDS011;5823;50.588;8.462;2022-12-07T02:50:24;0.65;;;0.65;;
11533;SDS011;5823;50.588;8.462;2022-12-07T02:52:50;0.90;;;0.80;;
11533;SDS011;5823;50.588;8.462;2022-12-07T02:55:17;0.32;;;0.32;;
11533;SDS011;5823;50.588;8.462;2022-12-07T02:57:51;0.70;;;0.40;;
11533;SDS011;5823;50.588;8.462;2022-12-07T03:00:20;0.40;;;0.40;;
11533;SDS011;5823;50.588;8.462;2022-12-07T03:02:49;0.40;;;0.40;;
11533;SDS011;5823;50.588;8.462;2022-12-07T03:05:24;0.30;;;0.30;;
11533;SDS011;5823;50.588;8.462;2022-12-07T03:08:02;0.50;;;0.50;;
11533;SDS011;5823;50.588;8.462;2022-12-07T03:10:33;0.35;;;0.35;;
11533;SDS011;5823;50.588;8.462;2022-12-07T03:13:02;0.60;;;0.60;;
11533;SDS011;5823;50.588;8.462;2022-12-07T03:15:31;0.60;;;0.60;;
11533;SDS011;5823;50.588;8.462;2022-12-07T03:17:58;1.35;;;0.55;;
11533;SDS011;5823;50.588;8.462;2022-12-07T03:20:26;0.57;;;0.57;;
11533;SDS011;5823;50.588;8.462;2022-12-07T03:22:53;0.25;;;0.25;;
11533;SDS011;5823;50.588;8.462;2022-12-07T03:25:20;0.30;;;0.30;;
11533;SDS011;5823;50.588;8.462;2022-12-07T03:27:49;0.38;;;0.35;;
11533;SDS011;5823;50.588;8.462;2022-12-07T03:30:18;0.60;;;0.55;;
11533;SDS011;5823;50.588;8.462;2022-12-07T03:32:45;0.50;;;0.50;;
11533;SDS011;5823;50.588;8.462;2022-12-07T03:35:15;0.40;;;0.40;;
11533;SDS011;5823;50.588;8.462;2022-12-07T03:37:45;0.60;;;0.60;;
11533;SDS011;5823;50.588;8.462;2022-12-07T03:40:13;0.50;;;0.50;;
11533;SDS011;5823;50.588;8.462;2022-12-07T03:42:41;0.50;;;0.50;;
11533;SDS011;5823;50.588;8.462;2022-12-07T03:45:08;0.68;;;0.68;;
11533;SDS011;5823;50.588;8.462;2022-12-07T03:47:35;0.60;;;0.60;;
11533;SDS011;5823;50.588;8.462;2022-12-07T03:50:05;0.85;;;0.80;;
11533;SDS011;5823;50.588;8.462;2022-12-07T03:52:33;0.40;;;0.40;;
11533;SDS011;5823;50.588;8.462;2022-12-07T03:55:04;0.30;;;0.30;;
11533;SDS011;5823;50.588;8.462;2022-12-07T03:57:32;0.50;;;0.50;;
11533;SDS011;5823;50.588;8.462;2022-12-07T03:59:59;0.50;;;0.50;;
11533;SDS011;5823;50.588;8.462;2022-12-07T04:02:26;0.38;;;0.38;;
11533;SDS011;5823;50.588;8.462;2022-12-07T04:04:53;0.50;;;0.50;;
11533;SDS011;5823;50.588;8.462;2022-12-07T04:07:20;0.47;;;0.47;;
11533;SDS011;5823;50.588;8.462;2022-12-07T04:09:46;0.22;;;0.22;;
11533;SDS011;5823;50.588;8.462;2022-12-07T04:12:14;0.28;;;0.28;;
11533;SDS011;5823;50.588;8.462;2022-12-07T04:14:40;0.30;;;0.30;;
11533;SDS011;5823;50.588;8.462;2022-12-07T04:17:06;0.55;;;0.50;;
11533;SDS011;5823;50.588;8.462;2022-12-07T04:19:33;0.30;;;0.30;;
11533;SDS011;5823;50.588;8.462;2022-12-07T04:22:00;0.80;;;0.80;;
11533;SDS011;5823;50.588;8.462;2022-12-07T04:24:27;0.50;;;0.50;;
11533;SDS011;5823;50.588;8.462;2022-12-07T04:26:54;0.35;;;0.35;;
11533;SDS011;5823;50.588;8.462;2022-12-07T04:29:21;0.50;;;0.40;;
11533;SDS011;5823;50.588;8.462;2022-12-07T04:31:48;0.85;;;0.75;;
11533;SDS011;5823;50.588;8.462;2022-12-07T04:34:15;1.05;;;1.00;;
11533;SDS011;5823;50.588;8.462;2022-12-07T04:36:41;0.82;;;0.82;;
11533;SDS011;5823;50.588;8.462;2022-12-07T04:39:08;0.80;;;0.80;;
11533;SDS011;5823;50.588;8.462;2022-12-07T04:41:39;0.30;;;0.30;;
11533;SDS011;5823;50.588;8.462;2022-12-07T04:44:05;0.47;;;0.47;;
11533;SDS011;5823;50.588;8.462;2022-12-07T04:46:33;0.77;;;0.77;;
11533;SDS011;5823;50.588;8.462;2022-12-07T04:49:00;0.60;;;0.60;;
11533;SDS011;5823;50.588;8.462;2022-12-07T04:51:27;0.65;;;0.65;;
11533;SDS011;5823;50.588;8.462;2022-12-07T04:53:54;0.60;;;0.60;;
11533;SDS011;5823;50.588;8.462;2022-12-07T04:56:20;0.85;;;0.80;;
11533;SDS011;5823;50.588;8.462;2022-12-07T04:58:47;0.40;;;0.40;;
11533;SDS011;5823;50.588;8.462;2022-12-07T05:01:14;0.60;;;0.60;;
11533;SDS011;5823;50.588;8.462;2022-12-07T05:03:42;0.50;;;0.50;;
11533;SDS011;5823;50.588;8.462;2022-12-07T05:06:08;0.68;;;0.50;;
11533;SDS011;5823;50.588;8.462;2022-12-07T05:08:35;0.50;;;0.50;;
11533;SDS011;5823;50.588;8.462;2022-12-07T05:11:02;0.30;;;0.30;;
11533;SDS011;5823;50.588;8.462;2022-12-07T05:13:29;0.40;;;0.40;;
11533;SDS011;5823;50.588;8.462;2022-12-07T05:15:55;0.40;;;0.40;;
11533;SDS011;5823;50.588;8.462;2022-12-07T05:18:22;0.40;;;0.40;;
11533;SDS011;5823;50.588;8.462;2022-12-07T05:20:49;0.75;;;0.73;;
11533;SDS011;5823;50.588;8.462;2022-12-07T05:23:16;0.60;;;0.60;;
11533;SDS011;5823;50.588;8.462;2022-12-07T05:25:42;0.43;;;0.43;;
11533;SDS011;5823;50.588;8.462;2022-12-07T05:28:09;0.43;;;0.40;;
11533;SDS011;5823;50.588;8.462;2022-12-07T05:30:35;0.50;;;0.50;;
11533;SDS011;5823;50.588;8.462;2022-12-07T05:33:02;0.82;;;0.70;;
11533;SDS011;5823;50.588;8.462;2022-12-07T05:35:28;0.60;;;0.60;;
11533;SDS011;5823;50.588;8.462;2022-12-07T05:37:56;0.63;;;0.63;;
11533;SDS011;5823;50.588;8.462;2022-12-07T05:40:23;0.68;;;0.60;;
11533;SDS011;5823;50.588;8.462;2022-12-07T05:42:49;0.52;;;0.50;;
11533;SDS011;5823;50.588;8.462;2022-12-07T05:45:16;0.40;;;0.40;;
11533;SDS011;5823;50.588;8.462;2022-12-07T05:47:42;0.60;;;0.57;;
11533;SDS011;5823;50.588;8.462;2022-12-07T05:50:08;0.50;;;0.50;;
11533;SDS011;5823;50.588;8.462;2022-12-07T05:52:34;0.60;;;0.57;;
11533;SDS011;5823;50.588;8.462;2022-12-07T05:55:02;0.70;;;0.70;;
11533;SDS011;5823;50.588;8.462;2022-12-07T05:57:28;0.40;;;0.40;;
11533;SDS011;5823;50.588;8.462;2022-12-07T05:59:55;0.50;;;0.50;;
11533;SDS011;5823;50.588;8.462;2022-12-07T06:02:20;0.38;;;0.38;;
11533;SDS011;5823;50.588;8.462;2022-12-07T06:04:46;0.38;;;0.38;;
11533;SDS011;5823;50.588;8.462;2022-12-07T06:07:13;0.40;;;0.40;;
11533;SDS011;5823;50.588;8.462;2022-12-07T06:09:40;0.40;;;0.38;;
11533;SDS011;5823;50.588;8.462;2022-12-07T06:12:08;0.20;;;0.20;;
11533;SDS011;5823;50.588;8.462;2022-12-07T06:14:52;0.50;;;0.50;;
11533;SDS011;5823;50.588;8.462;2022-12-07T06:17:18;0.30;;;0.30;;
11533;SDS011;5823;50.588;8.462;2022-12-07T06:19:45;0.68;;;0.68;;
11533;SDS011;5823;50.588;8.462;2022-12-07T06:22:11;0.80;;;0.80;;
11533;SDS011;5823;50.588;8.462;2022-12-07T06:24:38;0.93;;;0.80;;
11533;SDS011;5823;50.588;8.462;2022-12-07T06:27:04;1.00;;;0.90;;
11533;SDS011;5823;50.588;8.462;2022-12-07T06:29:32;0.47;;;0.47;;
11533;SDS011;5823;50.588;8.462;2022-12-07T06:31:58;0.40;;;0.30;;
11533;SDS011;5823;50.588;8.462;2022-12-07T06:34:25;0.30;;;0.30;;
11533;SDS011;5823;50.588;8.462;2022-12-07T06:36:52;0.25;;;0.25;;
11533;SDS011;5823;50.588;8.462;2022-12-07T06:39:20;0.20;;;0.20;;
11533;SDS011;5823;50.588;8.462;2022-12-07T06:41:47;0.20;;;0.20;;
11533;SDS011;5823;50.588;8.462;2022-12-07T06:44:13;0.30;;;0.30;;
11533;SDS011;5823;50.588;8.462;2022-12-07T06:46:41;0.30;;;0.30;;
11533;SDS011;5823;50.588;8.462;2022-12-07T06:49:07;0.38;;;0.35;;
11533;SDS011;5823;50.588;8.462;2022-12-07T06:51:34;0.20;;;0.20;;
11533;SDS011;5823;50.588;8.462;2022-12-07T06:54:01;0.25;;;0.25;;
11533;SDS011;5823;50.588;8.462;2022-12-07T06:56:27;0.20;;;0.20;;
11533;SDS011;5823;50.588;8.462;2022-12-07T06:58:54;0.10;;;0.10;;
11533;SDS011;5823;50.588;8.462;2022-12-07T07:01:20;0.20;;;0.20;;
11533;SDS011;5823;50.588;8.462;2022-12-07T07:03:48;0.35;;;0.35;;
11533;SDS011;5823;50.588;8.462;2022-12-07T07:06:14;0.50;;;0.50;;
11533;SDS011;5823;50.588;8.462;2022-12-07T07:08:40;0.10;;;0.10;;
11533;SDS011;5823;50.588;8.462;2022-12-07T07:11:07;0.38;;;0.38;;
11533;SDS011;5823;50.588;8.462;2022-12-07T07:13:33;0.45;;;0.32;;
11533;SDS011;5823;50.588;8.462;2022-12-07T07:16:00;0.55;;;0.55;;
11533;SDS011;5823;50.588;8.462;2022-12-07T07:18:26;0.38;;;0.32;;
11533;SDS011;5823;50.588;8.462;2022-12-07T07:20:54;0.43;;;0.43;;
11533;SDS011;5823;50.588;8.462;2022-12-07T07:23:21;0.60;;;0.60;;
11533;SDS011;5823;50.588;8.462;2022-12-07T07:25:47;0.63;;;0.63;;
11533;SDS011;5823;50.588;8.462;2022-12-07T07:28:13;0.50;;;0.50;;
11533;SDS011;5823;50.588;8.462;2022-12-07T07:30:39;0.60;;;0.60;;
11533;SDS011;5823;50.588;8.462;2022-12-07T07:33:06;0.50;;;0.50;;
11533;SDS011;5823;50.588;8.462;2022-12-07T07:35:33;0.50;;;0.50;;
11533;SDS011;5823;50.588;8.462;2022-12-07T07:38:01;0.45;;;0.45;;
11533;SDS011;5823;50.588;8.462;2022-12-07T07:40:27;0.35;;;0.30;;
11533;SDS011;5823;50.588;8.462;2022-12-07T07:42:54;0.63;;;0.60;;
11533;SDS011;5823;50.588;8.462;2022-12-07T07:45:21;0.60;;;0.57;;
11533;SDS011;5823;50.588;8.462;2022-12-07T07:47:48;0.57;;;0.57;;
11533;SDS011;5823;50.588;8.462;2022-12-07T07:50:15;0.47;;;0.47;;
11533;SDS011;5823;50.588;8.462;2022-12-07T07:52:41;0.47;;;0.47;;
11533;SDS011;5823;50.588;8.462;2022-12-07T07:55:09;0.63;;;0.52;;
11533;SDS011;5823;50.588;8.462;2022-12-07T07:57:36;0.65;;;0.65;;
11533;SDS011;5823;50.588;8.462;2022-12-07T08:00:03;0.50;;;0.50;;
11533;SDS011;5823;50.588;8.462;2022-12-07T08:02:29;0.47;;;0.47;;
11533;SDS011;5823;50.588;8.462;2022-12-07T08:04:55;0.32;;;0.30;;
11533;SDS011;5823;50.588;8.462;2022-12-07T08:07:22;0.40;;;0.40;;
11533;SDS011;5823;50.588;8.462;2022-12-07T08:09:48;0.65;;;0.57;;
11533;SDS011;5823;50.588;8.462;2022-12-07T08:12:16;0.30;;;0.30;;
11533;SDS011;5823;50.588;8.462;2022-12-07T08:14:42;0.55;;;0.50;;
11533;SDS011;5823;50.588;8.462;2022-12-07T08:17:08;0.63;;;0.63;;
11533;SDS011;5823;50.588;8.462;2022-12-07T08:19:34;0.50;;;0.50;;
11533;SDS011;5823;50.588;8.462;2022-12-07T08:22:01;0.60;;;0.60;;
11533;SDS011;5823;50.588;8.462;2022-12-07T08:24:27;0.60;;;0.60;;
11533;SDS011;5823;50.588;8.462;2022-12-07T08:26:53;0.63;;;0.60;;
11533;SDS011;5823;50.588;8.462;2022-12-07T08:29:21;0.50;;;0.45;;
11533;SDS011;5823;50.588;8.462;2022-12-07T08:31:47;0.30;;;0.30;;
11533;SDS011;5823;50.588;8.462;2022-12-07T08:34:14;0.45;;;0.45;;
11533;SDS011;5823;50.588;8.462;2022-12-07T08:36:40;0.40;;;0.40;;
11533;SDS011;5823;50.588;8.462;2022-12-07T08:39:06;0.47;;;0.47;;
11533;SDS011;5823;50.588;8.462;2022-12-07T08:41:32;0.57;;;0.50;;
11533;SDS011;5823;50.588;8.462;2022-12-07T08:43:59;0.40;;;0.35;;
11533;SDS011;5823;50.588;8.462;2022-12-07T08:46:27;0.50;;;0.50;;
11533;SDS011;5823;50.588;8.462;2022-12-07T08:48:58;0.40;;;0.40;;
11533;SDS011;5823;50.588;8.462;2022-12-07T08:51:27;0.20;;;0.20;;
11533;SDS011;5823;50.588;8.462;2022-12-07T08:53:54;0.35;;;0.35;;
11533;SDS011;5823;50.588;8.462;2022-12-07T08:56:21;0.40;;;0.35;;
11533;SDS011;5823;50.588;8.462;2022-12-07T08:58:47;0.50;;;0.50;;
11533;SDS011;5823;50.588;8.462;2022-12-07T09:01:14;0.38;;;0.38;;
11533;SDS011;5823;50.588;8.462;2022-12-07T09:03:41;0.38;;;0.38;;
11533;SDS011;5823;50.588;8.462;2022-12-07T09:06:08;0.40;;;0.40;;
11533;SDS011;5823;50.588;8.462;2022-12-07T09:08:34;0.68;;;0.68;;
11533;SDS011;5823;50.588;8.462;2022-12-07T09:11:02;0.50;;;0.50;;
11533;SDS011;5823;50.588;8.462;2022-12-07T09:13:29;0.50;;;0.50;;
11533;SDS011;5823;50.588;8.462;2022-12-07T09:15:55;0.45;;;0.45;;
11533;SDS011;5823;50.588;8.462;2022-12-07T09:18:22;0.30;;;0.30;;
11533;SDS011;5823;50.588;8.462;2022-12-07T09:20:50;0.28;;;0.28;;
11533;SDS011;5823;50.588;8.462;2022-12-07T09:23:16;0.60;;;0.50;;
11533;SDS011;5823;50.588;8.462;2022-12-07T09:25:43;0.30;;;0.30;;
11533;SDS011;5823;50.588;8.462;2022-12-07T09:28:09;0.30;;;0.30;;
11533;SDS011;5823;50.588;8.462;2022-12-07T09:30:35;0.40;;;0.40;;
11533;SDS011;5823;50.588;8.462;2022-12-07T09:33:02;0.28;;;0.28;;
11533;SDS011;5823;50.588;8.462;2022-12-07T09:35:28;0.30;;;0.30;;
11533;SDS011;5823;50.588;8.462;2022-12-07T09:37:56;0.25;;;0.25;;
11533;SDS011;5823;50.588;8.462;2022-12-07T09:40:22;0.22;;;0.22;;
11533;SDS011;5823;50.588;8.462;2022-12-07T09:42:49;0.40;;;0.40;;
11533;SDS011;5823;50.588;8.462;2022-12-07T09:45:18;0.20;;;0.20;;
11533;SDS011;5823;50.588;8.462;2022-12-07T09:47:45;0.30;;;0.30;;
11533;SDS011;5823;50.588;8.462;2022-12-07T09:50:13;0.30;;;0.30;;
11533;SDS011;5823;50.588;8.462;2022-12-07T09:52:39;0.50;;;0.50;;
11533;SDS011;5823;50.588;8.462;2022-12-07T09:55:10;0.50;;;0.50;;
11533;SDS011;5823;50.588;8.462;2022-12-07T09:57:37;0.60;;;0.60;;
11533;SDS011;5823;50.588;8.462;2022-12-07T10:00:04;0.47;;;0.35;;
11533;SDS011;5823;50.588;8.462;2022-12-07T10:02:34;0.47;;;0.47;;
11533;SDS011;5823;50.588;8.462;2022-12-07T10:05:01;0.38;;;0.20;;
11533;SDS011;5823;50.588;8.462;2022-12-07T10:07:29;0.32;;;0.30;;
11533;SDS011;5823;50.588;8.462;2022-12-07T10:09:55;0.20;;;0.20;;
11533;SDS011;5823;50.588;8.462;2022-12-07T10:12:23;0.13;;;0.13;;
11533;SDS011;5823;50.588;8.462;2022-12-07T10:14:53;0.30;;;0.30;;
11533;SDS011;5823;50.588;8.462;2022-12-07T10:17:30;0.50;;;0.50;;
11533;SDS011;5823;50.588;8.462;2022-12-07T10:20:14;0.70;;;0.30;;
11533;SDS011;5823;50.588;8.462;2022-12-07T10:22:52;1.27;;;0.30;;
11533;SDS011;5823;50.588;8.462;2022-12-07T10:25:19;0.20;;;0.20;;
11533;SDS011;5823;50.588;8.462;2022-12-07T10:27:56;0.20;;;0.20;;
11533;SDS011;5823;50.588;8.462;2022-12-07T10:30:23;0.28;;;0.28;;
11533;SDS011;5823;50.588;8.462;2022-12-07T10:32:49;0.30;;;0.30;;
11533;SDS011;5823;50.588;8.462;2022-12-07T10:35:19;0.20;;;0.20;;
11533;SDS011;5823;50.588;8.462;2022-12-07T10:37:46;0.30;;;0.30;;
11533;SDS011;5823;50.588;8.462;2022-12-07T10:40:23;0.20;;;0.20;;
11533;SDS011;5823;50.588;8.462;2022-12-07T10:43:01;0.30;;;0.30;;
11533;SDS011;5823;50.588;8.462;2022-12-07T10:45:27;0.30;;;0.28;;
11533;SDS011;5823;50.588;8.462;2022-12-07T10:47:55;0.52;;;0.30;;
11533;SDS011;5823;50.588;8.462;2022-12-07T10:50:29;0.60;;;0.40;;
11533;SDS011;5823;50.588;8.462;2022-12-07T10:52:58;0.30;;;0.30;;
11533;SDS011;5823;50.588;8.462;2022-12-07T10:55:29;0.30;;;0.20;;
11533;SDS011;5823;50.588;8.462;2022-12-07T10:58:03;0.20;;;0.20;;
11533;SDS011;5823;50.588;8.462;2022-12-07T11:00:35;0.55;;;0.40;;
11533;SDS011;5823;50.588;8.462;2022-12-07T11:03:20;0.15;;;0.15;;
11533;SDS011;5823;50.588;8.462;2022-12-07T11:05:50;0.47;;;0.20;;
11533;SDS011;5823;50.588;8.462;2022-12-07T11:08:20;0.40;;;0.32;;
11533;SDS011;5823;50.588;8.462;2022-12-07T11:10:50;0.32;;;0.20;;
11533;SDS011;5823;50.588;8.462;2022-12-07T11:13:23;0.40;;;0.30;;
11533;SDS011;5823;50.588;8.462;2022-12-07T11:15:54;0.30;;;0.30;;
11533;SDS011;5823;50.588;8.462;2022-12-07T11:18:24;0.22;;;0.22;;
11533;SDS011;5823;50.588;8.462;2022-12-07T11:20:54;0.10;;;0.10;;
11533;SDS011;5823;50.588;8.462;2022-12-07T11:23:24;0.68;;;0.40;;
11533;SDS011;5823;50.588;8.462;2022-12-07T11:25:57;0.70;;;0.60;;
11533;SDS011;5823;50.588;8.462;2022-12-07T11:28:30;0.85;;;0.50;;
11533;SDS011;5823;50.588;8.462;2022-12-07T11:31:03;1.25;;;0.70;;
11533;SDS011;5823;50.588;8.462;2022-12-07T11:33:34;0.57;;;0.40;;
11533;SDS011;5823;50.588;8.462;2022-12-07T11:36:05;0.73;;;0.20;;
11533;SDS011;5823;50.588;8.462;2022-12-07T11:38:37;0.65;;;0.57;;
11533;SDS011;5823;50.588;8.462;2022-12-07T11:41:04;0.20;;;0.20;;
11533;SDS011;5823;50.588;8.462;2022-12-07T11:43:41;0.85;;;0.52;;
11533;SDS011;5823;50.588;8.462;2022-12-07T11:46:12;0.20;;;0.20;;
11533;SDS011;5823;50.588;8.462;2022-12-07T11:48:40;1.20;;;0.50;;
11533;SDS011;5823;50.588;8.462;2022-12-07T11:51:09;0.25;;;0.10;;
11533;SDS011;5823;50.588;8.462;2022-12-07T11:53:37;0.47;;;0.40;;
11533;SDS011;5823;50.588;8.462;2022-12-07T11:56:07;0.50;;;0.50;;
11533;SDS011;5823;50.588;8.462;2022-12-07T11:58:44;0.30;;;0.30;;
11533;SDS011;5823;50.588;8.462;2022-12-07T12:01:15;0.65;;;0.50;;
11533;SDS011;5823;50.588;8.462;2022-12-07T12:03:46;0.93;;;0.50;;
11533;SDS011;5823;50.588;8.462;2022-12-07T12:06:13;0.40;;;0.38;;
11533;SDS011;5823;50.588;8.462;2022-12-07T12:08:39;0.30;;;0.30;;
11533;SDS011;5823;50.588;8.462;2022-12-07T12:11:09;0.22;;;0.22;;
11533;SDS011;5823;50.588;8.462;2022-12-07T12:13:54;0.40;;;0.40;;
11533;SDS011;5823;50.588;8.462;2022-12-07T12:16:31;0.32;;;0.32;;
11533;SDS011;5823;50.588;8.462;2022-12-07T12:19:06;0.30;;;0.30;;
11533;SDS011;5823;50.588;8.462;2022-12-07T12:21:36;0.45;;;0.13;;
11533;SDS011;5823;50.588;8.462;2022-12-07T12:24:04;0.13;;;0.13;;
11533;SDS011;5823;50.588;8.462;2022-12-07T12:26:35;0.43;;;0.38;;
11533;SDS011;5823;50.588;8.462;2022-12-07T12:29:04;0.30;;;0.30;;
11533;SDS011;5823;50.588;8.462;2022-12-07T12:31:32;0.10;;;0.10;;
11533;SDS011;5823;50.588;8.462;2022-12-07T12:34:00;0.30;;;0.28;;
11533;SDS011;5823;50.588;8.462;2022-12-07T12:36:42;0.25;;;0.20;;
11533;SDS011;5823;50.588;8.462;2022-12-07T12:39:10;0.20;;;0.20;;
11533;SDS011;5823;50.588;8.462;2022-12-07T12:41:51;0.28;;;0.28;;
11533;SDS011;5823;50.588;8.462;2022-12-07T12:47:41;0.20;;;0.20;;
11533;SDS011;5823;50.588;8.462;2022-12-07T12:50:18;0.40;;;0.40;;
11533;SDS011;5823;50.588;8.462;2022-12-07T12:52:49;0.40;;;0.40;;
11533;SDS011;5823;50.588;8.462;2022-12-07T12:55:21;0.47;;;0.40;;
11533;SDS011;5823;50.588;8.462;2022-12-07T13:00:36;0.20;;;0.20;;
11533;SDS011;5823;50.588;8.462;2022-12-07T13:03:25;0.20;;;0.20;;
11533;SDS011;5823;50.588;8.462;2022-12-07T13:08:33;0.25;;;0.25;;
11533;SDS011;5823;50.588;8.462;2022-12-07T13:11:15;0.40;;;0.35;;
11533;SDS011;5823;50.588;8.462;2022-12-07T13:13:41;0.70;;;0.60;;
11533;SDS011;5823;50.588;8.462;2022-12-07T13:18:54;0.90;;;0.70;;
11533;SDS011;5823;50.588;8.462;2022-12-07T13:24:01;0.60;;;0.60;;
11533;SDS011;5823;50.588;8.462;2022-12-07T13:26:34;0.38;;;0.35;;
11533;SDS011;5823;50.588;8.462;2022-12-07T13:29:05;0.30;;;0.30;;
11533;SDS011;5823;50.588;8.462;2022-12-07T13:31:32;0.15;;;0.15;;
11533;SDS011;5823;50.588;8.462;2022-12-07T13:34:00;0.20;;;0.20;;
11533;SDS011;5823;50.588;8.462;2022-12-07T13:36:27;0.10;;;0.10;;
11533;SDS011;5823;50.588;8.462;2022-12-07T13:38:57;0.10;;;0.10;;
11533;SDS011;5823;50.588;8.462;2022-12-07T13:41:24;0.10;;;0.10;;
11533;SDS011;5823;50.588;8.462;2022-12-07T13:43:52;0.08;;;0.08;;
11533;SDS011;5823;50.588;8.462;2022-12-07T13:46:19;0.00;;;0.00;;
11533;SDS011;5823;50.588;8.462;2022-12-07T13:48:47;0.10;;;0.10;;
11533;SDS011;5823;50.588;8.462;2022-12-07T13:51:19;0.03;;;0.00;;
11533;SDS011;5823;50.588;8.462;2022-12-07T13:53:46;0.03;;;0.03;;
11533;SDS011;5823;50.588;8.462;2022-12-07T13:56:13;0.00;;;0.00;;
11533;SDS011;5823;50.588;8.462;2022-12-07T13:58:40;0.00;;;0.00;;
11533;SDS011;5823;50.588;8.462;2022-12-07T14:01:06;0.10;;;0.10;;
11533;SDS011;5823;50.588;8.462;2022-12-07T14:03:33;0.10;;;0.10;;
11533;SDS011;5823;50.588;8.462;2022-12-07T14:06:12;0.00;;;0.00;;
11533;SDS011;5823;50.588;8.462;2022-12-07T14:08:41;0.10;;;0.10;;
11533;SDS011;5823;50.588;8.462;2022-12-07T14:11:07;0.10;;;0.10;;
11533;SDS011;5823;50.588;8.462;2022-12-07T14:13:37;0.10;;;0.10;;
11533;SDS011;5823;50.588;8.462;2022-12-07T14:16:19;0.00;;;0.00;;
11533;SDS011;5823;50.588;8.462;2022-12-07T14:18:47;0.17;;;0.17;;
11533;SDS011;5823;50.588;8.462;2022-12-07T14:21:14;0.10;;;0.10;;
11533;SDS011;5823;50.588;8.462;2022-12-07T14:23:42;0.17;;;0.00;;
11533;SDS011;5823;50.588;8.462;2022-12-07T14:26:11;0.00;;;0.00;;
11533;SDS011;5823;50.588;8.462;2022-12-07T14:28:38;0.15;;;0.10;;
11533;SDS011;5823;50.588;8.462;2022-12-07T14:31:07;0.08;;;0.08;;
11533;SDS011;5823;50.588;8.462;2022-12-07T14:33:34;0.10;;;0.08;;
11533;SDS011;5823;50.588;8.462;2022-12-07T14:36:00;0.20;;;0.20;;
11533;SDS011;5823;50.588;8.462;2022-12-07T14:38:27;0.20;;;0.20;;
11533;SDS011;5823;50.588;8.462;2022-12-07T14:40:54;0.20;;;0.20;;
11533;SDS011;5823;50.588;8.462;2022-12-07T14:43:41;0.10;;;0.10;;
11533;SDS011;5823;50.588;8.462;2022-12-07T14:46:07;0.20;;;0.20;;
11533;SDS011;5823;50.588;8.462;2022-12-07T14:48:34;0.10;;;0.10;;
11533;SDS011;5823;50.588;8.462;2022-12-07T14:51:01;0.10;;;0.10;;
11533;SDS011;5823;50.588;8.462;2022-12-07T14:53:28;0.20;;;0.20;;
11533;SDS011;5823;50.588;8.462;2022-12-07T14:55:56;0.00;;;0.00;;
11533;SDS011;5823;50.588;8.462;2022-12-07T14:58:23;0.20;;;0.20;;
11533;SDS011;5823;50.588;8.462;2022-12-07T15:00:49;0.00;;;0.00;;
11533;SDS011;5823;50.588;8.462;2022-12-07T15:03:15;0.10;;;0.10;;
11533;SDS011;5823;50.588;8.462;2022-12-07T15:05:41;0.10;;;0.10;;
11533;SDS011;5823;50.588;8.462;2022-12-07T15:08:08;0.10;;;0.00;;
11533;SDS011;5823;50.588;8.462;2022-12-07T15:10:34;0.10;;;0.10;;
11533;SDS011;5823;50.588;8.462;2022-12-07T15:13:04;0.10;;;0.10;;
11533;SDS011;5823;50.588;8.462;2022-12-07T15:15:49;0.13;;;0.13;;
11533;SDS011;5823;50.588;8.462;2022-12-07T15:18:16;0.10;;;0.10;;
11533;SDS011;5823;50.588;8.462;2022-12-07T15:20:43;0.00;;;0.00;;